sensor_id;sensor_type;location;lat;lon;timestamp;temperature;humidity
37678;DHT22;23517;50.390;8.616;2023-02-28T00:01:26;0.80;49.30
37678;DHT22;23517;50.390;8.616;2023-02-28T00:03:53;0.80;49.20
37678;DHT22;23517;50.390;8.616;2023-02-28T00:06:20;0.80;49.50
37678;DHT22;23517;50.390;8.616;2023-02-28T00:08:47;0.80;49.10
37678;DHT22;23517;50.390;8.616;2023-02-28T00:11:15;0.70;48.90
37678;DHT22;23517;50.390;8.616;2023-02-28T00:13:44;0.70;49.20
37678;DHT22;23517;50.390;8.616;2023-02-28T00:16:20;0.70;49.30
37678;DHT22;23517;50.390;8.616;2023-02-28T00:18:48;0.70;49.40
37678;DHT22;23517;50.390;8.616;2023-02-28T00:21:18;0.70;49.20
37678;DHT22;23517;50.390;8.616;2023-02-28T00:23:46;0.70;49.00
37678;DHT22;23517;50.390;8.616;2023-02-28T00:26:13;0.70;48.90
37678;DHT22;23517;50.390;8.616;2023-02-28T00:28:40;0.70;48.90
37678;DHT22;23517;50.390;8.616;2023-02-28T00:31:11;0.80;48.60
37678;DHT22;23517;50.390;8.616;2023-02-28T00:33:40;0.70;48.20
37678;DHT22;23517;50.390;8.616;2023-02-28T00:36:09;0.70;48.60
37678;DHT22;23517;50.390;8.616;2023-02-28T00:38:39;0.60;48.50
37678;DHT22;23517;50.390;8.616;2023-02-28T00:41:06;0.60;48.70
37678;DHT22;23517;50.390;8.616;2023-02-28T00:43:37;0.60;48.70
37678;DHT22;23517;50.390;8.616;2023-02-28T00:46:05;0.50;48.80
37678;DHT22;23517;50.390;8.616;2023-02-28T00:48:32;0.50;49.00
37678;DHT22;23517;50.390;8.616;2023-02-28T00:50:59;0.40;48.90
37678;DHT22;23517;50.390;8.616;2023-02-28T00:53:26;0.30;49.30
37678;DHT22;23517;50.390;8.616;2023-02-28T00:55:53;0.30;49.50
37678;DHT22;23517;50.390;8.616;2023-02-28T00:58:21;0.30;49.30
37678;DHT22;23517;50.390;8.616;2023-02-28T01:00:48;0.20;50.20
37678;DHT22;23517;50.390;8.616;2023-02-28T01:03:17;0.20;49.90
37678;DHT22;23517;50.390;8.616;2023-02-28T01:05:45;0.10;50.00
37678;DHT22;23517;50.390;8.616;2023-02-28T01:08:13;0.10;50.20
37678;DHT22;23517;50.390;8.616;2023-02-28T01:10:40;0.00;50.70
37678;DHT22;23517;50.390;8.616;2023-02-28T01:13:07;-0.10;51.00
37678;DHT22;23517;50.390;8.616;2023-02-28T01:15:34;-0.20;51.20
37678;DHT22;23517;50.390;8.616;2023-02-28T01:18:04;-0.20;51.60
37678;DHT22;23517;50.390;8.616;2023-02-28T01:20:31;-0.20;51.50
37678;DHT22;23517;50.390;8.616;2023-02-28T01:22:58;-0.20;52.20
37678;DHT22;23517;50.390;8.616;2023-02-28T01:25:24;-0.30;52.20
37678;DHT22;23517;50.390;8.616;2023-02-28T01:27:51;-0.30;52.80
37678;DHT22;23517;50.390;8.616;2023-02-28T01:30:18;-0.40;52.50
37678;DHT22;23517;50.390;8.616;2023-02-28T01:32:45;-0.40;52.60
37678;DHT22;23517;50.390;8.616;2023-02-28T01:35:11;-0.50;52.90
37678;DHT22;23517;50.390;8.616;2023-02-28T01:37:38;-0.50;53.10
37678;DHT22;23517;50.390;8.616;2023-02-28T01:40:06;-0.50;53.50
37678;DHT22;23517;50.390;8.616;2023-02-28T01:42:33;-0.50;53.60
37678;DHT22;23517;50.390;8.616;2023-02-28T01:47:46;-0.70;54.00
37678;DHT22;23517;50.390;8.616;2023-02-28T01:50:18;-0.60;54.60
37678;DHT22;23517;50.390;8.616;2023-02-28T01:52:47;-0.60;54.30
37678;DHT22;23517;50.390;8.616;2023-02-28T01:55:20;-0.60;54.40
37678;DHT22;23517;50.390;8.616;2023-02-28T01:57:52;-0.70;54.50
37678;DHT22;23517;50.390;8.616;2023-02-28T02:00:24;-0.70;54.50
37678;DHT22;23517;50.390;8.616;2023-02-28T02:02:58;-0.70;54.50
37678;DHT22;23517;50.390;8.616;2023-02-28T02:05:30;-0.70;54.90
37678;DHT22;23517;50.390;8.616;2023-02-28T02:08:03;-0.70;54.90
37678;DHT22;23517;50.390;8.616;2023-02-28T02:10:35;-0.70;55.10
37678;DHT22;23517;50.390;8.616;2023-02-28T02:34:51;-0.80;54.40
37678;DHT22;23517;50.390;8.616;2023-02-28T02:37:40;-0.70;54.40
37678;DHT22;23517;50.390;8.616;2023-02-28T02:40:46;-0.70;54.00
37678;DHT22;23517;50.390;8.616;2023-02-28T02:43:15;-0.70;54.00
37678;DHT22;23517;50.390;8.616;2023-02-28T02:45:51;-0.70;53.90
37678;DHT22;23517;50.390;8.616;2023-02-28T02:48:24;-0.80;53.80
37678;DHT22;23517;50.390;8.616;2023-02-28T02:50:55;-0.80;54.30
37678;DHT22;23517;50.390;8.616;2023-02-28T02:53:35;-0.90;54.30
37678;DHT22;23517;50.390;8.616;2023-02-28T02:56:07;-0.90;54.60
37678;DHT22;23517;50.390;8.616;2023-02-28T02:58:38;-0.90;54.90
37678;DHT22;23517;50.390;8.616;2023-02-28T03:01:10;-0.90;54.80
37678;DHT22;23517;50.390;8.616;2023-02-28T03:03:40;-0.90;54.90
37678;DHT22;23517;50.390;8.616;2023-02-28T03:06:07;-1.00;54.40
37678;DHT22;23517;50.390;8.616;2023-02-28T03:08:43;-0.90;54.50
37678;DHT22;23517;50.390;8.616;2023-02-28T03:11:14;-1.00;54.30
37678;DHT22;23517;50.390;8.616;2023-02-28T03:19:51;-1.00;54.10
37678;DHT22;23517;50.390;8.616;2023-02-28T03:22:52;-1.00;53.90
37678;DHT22;23517;50.390;8.616;2023-02-28T03:25:52;-1.00;53.00
37678;DHT22;23517;50.390;8.616;2023-02-28T03:31:20;-1.10;52.60
37678;DHT22;23517;50.390;8.616;2023-02-28T03:36:47;-1.10;52.20
37678;DHT22;23517;50.390;8.616;2023-02-28T03:39:28;-1.10;52.10
37678;DHT22;23517;50.390;8.616;2023-02-28T03:42:01;-1.10;52.10
37678;DHT22;23517;50.390;8.616;2023-02-28T03:45:23;-1.10;51.90
37678;DHT22;23517;50.390;8.616;2023-02-28T03:50:34;-1.10;51.50
37678;DHT22;23517;50.390;8.616;2023-02-28T03:55:52;-1.20;51.60
37678;DHT22;23517;50.390;8.616;2023-02-28T04:01:17;-1.20;51.80
37678;DHT22;23517;50.390;8.616;2023-02-28T04:03:46;-1.10;51.80
37678;DHT22;23517;50.390;8.616;2023-02-28T04:06:22;-1.20;51.60
37678;DHT22;23517;50.390;8.616;2023-02-28T04:08:50;-1.20;51.70
37678;DHT22;23517;50.390;8.616;2023-02-28T04:11:21;-1.20;52.10
37678;DHT22;23517;50.390;8.616;2023-02-28T04:14:09;-1.20;51.80
37678;DHT22;23517;50.390;8.616;2023-02-28T04:16:39;-1.20;51.90
37678;DHT22;23517;50.390;8.616;2023-02-28T04:19:08;-1.20;52.30
37678;DHT22;23517;50.390;8.616;2023-02-28T04:21:39;-1.20;52.40
37678;DHT22;23517;50.390;8.616;2023-02-28T04:24:09;-1.30;52.70
37678;DHT22;23517;50.390;8.616;2023-02-28T04:26:42;-1.30;52.50
37678;DHT22;23517;50.390;8.616;2023-02-28T04:29:12;-1.30;52.50
37678;DHT22;23517;50.390;8.616;2023-02-28T04:31:40;-1.30;52.70
37678;DHT22;23517;50.390;8.616;2023-02-28T04:34:07;-1.40;52.60
37678;DHT22;23517;50.390;8.616;2023-02-28T04:36:34;-1.40;52.90
37678;DHT22;23517;50.390;8.616;2023-02-28T04:39:01;-1.40;53.10
37678;DHT22;23517;50.390;8.616;2023-02-28T04:41:28;-1.50;53.00
37678;DHT22;23517;50.390;8.616;2023-02-28T04:43:58;-1.50;53.20
37678;DHT22;23517;50.390;8.616;2023-02-28T04:46:25;-1.60;53.50
37678;DHT22;23517;50.390;8.616;2023-02-28T04:48:51;-1.50;53.40
37678;DHT22;23517;50.390;8.616;2023-02-28T04:51:18;-1.50;53.60
37678;DHT22;23517;50.390;8.616;2023-02-28T04:53:49;-1.60;53.80
37678;DHT22;23517;50.390;8.616;2023-02-28T04:56:17;-1.50;54.00
37678;DHT22;23517;50.390;8.616;2023-02-28T04:58:44;-1.50;53.70
37678;DHT22;23517;50.390;8.616;2023-02-28T05:03:55;-1.50;53.40
37678;DHT22;23517;50.390;8.616;2023-02-28T05:06:26;-1.50;53.90
37678;DHT22;23517;50.390;8.616;2023-02-28T05:08:53;-1.60;54.00
37678;DHT22;23517;50.390;8.616;2023-02-28T05:11:26;-1.60;54.10
37678;DHT22;23517;50.390;8.616;2023-02-28T05:13:56;-1.60;54.20
37678;DHT22;23517;50.390;8.616;2023-02-28T05:16:24;-1.60;54.20
37678;DHT22;23517;50.390;8.616;2023-02-28T05:18:51;-1.50;54.30
37678;DHT22;23517;50.390;8.616;2023-02-28T05:21:30;-1.50;54.10
37678;DHT22;23517;50.390;8.616;2023-02-28T05:24:08;-1.50;54.20
37678;DHT22;23517;50.390;8.616;2023-02-28T05:26:39;-1.50;54.10
37678;DHT22;23517;50.390;8.616;2023-02-28T05:29:07;-1.50;54.10
37678;DHT22;23517;50.390;8.616;2023-02-28T05:31:34;-1.40;54.20
37678;DHT22;23517;50.390;8.616;2023-02-28T05:34:11;-1.50;54.00
37678;DHT22;23517;50.390;8.616;2023-02-28T05:36:38;-1.40;54.00
37678;DHT22;23517;50.390;8.616;2023-02-28T05:39:06;-1.40;54.10
37678;DHT22;23517;50.390;8.616;2023-02-28T05:41:41;-1.40;53.60
37678;DHT22;23517;50.390;8.616;2023-02-28T05:44:09;-1.40;53.30
37678;DHT22;23517;50.390;8.616;2023-02-28T05:46:36;-1.40;53.20
37678;DHT22;23517;50.390;8.616;2023-02-28T05:49:03;-1.40;53.20
37678;DHT22;23517;50.390;8.616;2023-02-28T05:51:30;-1.40;53.20
37678;DHT22;23517;50.390;8.616;2023-02-28T05:54:01;-1.40;53.30
37678;DHT22;23517;50.390;8.616;2023-02-28T05:56:36;-1.40;53.60
37678;DHT22;23517;50.390;8.616;2023-02-28T05:59:05;-1.40;53.30
37678;DHT22;23517;50.390;8.616;2023-02-28T06:01:41;-1.50;53.40
37678;DHT22;23517;50.390;8.616;2023-02-28T06:04:09;-1.40;53.50
37678;DHT22;23517;50.390;8.616;2023-02-28T06:06:48;-1.40;53.20
37678;DHT22;23517;50.390;8.616;2023-02-28T06:09:17;-1.40;53.00
37678;DHT22;23517;50.390;8.616;2023-02-28T06:11:44;-1.40;52.80
37678;DHT22;23517;50.390;8.616;2023-02-28T06:14:18;-1.40;52.80
37678;DHT22;23517;50.390;8.616;2023-02-28T06:16:46;-1.40;52.80
37678;DHT22;23517;50.390;8.616;2023-02-28T06:19:13;-1.30;53.10
37678;DHT22;23517;50.390;8.616;2023-02-28T06:21:41;-1.30;53.10
37678;DHT22;23517;50.390;8.616;2023-02-28T06:24:08;-1.20;52.90
37678;DHT22;23517;50.390;8.616;2023-02-28T06:26:35;-1.20;52.40
37678;DHT22;23517;50.390;8.616;2023-02-28T06:29:02;-1.20;52.10
37678;DHT22;23517;50.390;8.616;2023-02-28T06:31:29;-1.10;52.10
37678;DHT22;23517;50.390;8.616;2023-02-28T06:34:00;-1.10;51.90
37678;DHT22;23517;50.390;8.616;2023-02-28T06:36:26;-1.10;51.70
37678;DHT22;23517;50.390;8.616;2023-02-28T06:38:54;-1.00;50.90
37678;DHT22;23517;50.390;8.616;2023-02-28T06:41:26;-0.90;51.40
37678;DHT22;23517;50.390;8.616;2023-02-28T06:43:54;-0.80;50.40
37678;DHT22;23517;50.390;8.616;2023-02-28T06:46:24;-0.80;50.20
37678;DHT22;23517;50.390;8.616;2023-02-28T06:48:50;-0.60;49.90
37678;DHT22;23517;50.390;8.616;2023-02-28T06:51:19;-0.50;49.50
37678;DHT22;23517;50.390;8.616;2023-02-28T06:53:48;-0.50;49.20
37678;DHT22;23517;50.390;8.616;2023-02-28T06:56:16;-0.40;49.20
37678;DHT22;23517;50.390;8.616;2023-02-28T06:58:50;-0.40;48.90
37678;DHT22;23517;50.390;8.616;2023-02-28T07:01:19;-0.30;48.50
37678;DHT22;23517;50.390;8.616;2023-02-28T07:03:46;-0.30;48.40
37678;DHT22;23517;50.390;8.616;2023-02-28T07:06:19;-0.30;48.90
37678;DHT22;23517;50.390;8.616;2023-02-28T07:08:54;-0.10;48.60
37678;DHT22;23517;50.390;8.616;2023-02-28T07:11:23;0.00;48.10
37678;DHT22;23517;50.390;8.616;2023-02-28T07:13:53;0.00;47.90
37678;DHT22;23517;50.390;8.616;2023-02-28T07:16:21;0.10;47.30
37678;DHT22;23517;50.390;8.616;2023-02-28T07:18:48;0.10;47.50
37678;DHT22;23517;50.390;8.616;2023-02-28T07:21:15;0.20;46.50
37678;DHT22;23517;50.390;8.616;2023-02-28T07:23:42;0.20;46.10
37678;DHT22;23517;50.390;8.616;2023-02-28T07:26:15;0.30;46.00
37678;DHT22;23517;50.390;8.616;2023-02-28T07:28:44;0.40;46.10
37678;DHT22;23517;50.390;8.616;2023-02-28T07:31:13;0.50;45.60
37678;DHT22;23517;50.390;8.616;2023-02-28T07:33:43;0.60;44.30
37678;DHT22;23517;50.390;8.616;2023-02-28T07:36:13;0.60;44.10
37678;DHT22;23517;50.390;8.616;2023-02-28T07:38:43;0.80;43.50
37678;DHT22;23517;50.390;8.616;2023-02-28T07:41:16;0.90;42.80
37678;DHT22;23517;50.390;8.616;2023-02-28T07:43:43;0.90;42.40
37678;DHT22;23517;50.390;8.616;2023-02-28T07:46:13;1.00;42.20
37678;DHT22;23517;50.390;8.616;2023-02-28T07:48:43;1.20;40.90
37678;DHT22;23517;50.390;8.616;2023-02-28T07:51:10;1.10;40.50
37678;DHT22;23517;50.390;8.616;2023-02-28T07:53:37;1.00;40.40
37678;DHT22;23517;50.390;8.616;2023-02-28T07:56:04;1.00;40.20
37678;DHT22;23517;50.390;8.616;2023-02-28T07:58:33;0.90;40.70
37678;DHT22;23517;50.390;8.616;2023-02-28T08:01:08;1.00;40.40
37678;DHT22;23517;50.390;8.616;2023-02-28T08:03:36;1.10;40.40
37678;DHT22;23517;50.390;8.616;2023-02-28T08:06:04;1.30;40.20
37678;DHT22;23517;50.390;8.616;2023-02-28T08:08:33;1.50;39.60
37678;DHT22;23517;50.390;8.616;2023-02-28T08:11:01;1.70;38.40
37678;DHT22;23517;50.390;8.616;2023-02-28T08:13:30;1.80;38.10
37678;DHT22;23517;50.390;8.616;2023-02-28T08:15:56;2.00;37.60
37678;DHT22;23517;50.390;8.616;2023-02-28T08:18:24;2.10;36.60
37678;DHT22;23517;50.390;8.616;2023-02-28T08:20:50;2.00;36.30
37678;DHT22;23517;50.390;8.616;2023-02-28T08:23:17;2.00;35.90
37678;DHT22;23517;50.390;8.616;2023-02-28T08:25:44;2.20;36.10
37678;DHT22;23517;50.390;8.616;2023-02-28T08:28:10;2.20;36.10
37678;DHT22;23517;50.390;8.616;2023-02-28T08:30:37;2.40;35.80
37678;DHT22;23517;50.390;8.616;2023-02-28T08:33:04;2.40;32.90
37678;DHT22;23517;50.390;8.616;2023-02-28T08:35:31;2.10;31.60
37678;DHT22;23517;50.390;8.616;2023-02-28T08:37:58;2.00;32.20
37678;DHT22;23517;50.390;8.616;2023-02-28T08:40:24;2.50;33.00
37678;DHT22;23517;50.390;8.616;2023-02-28T08:42:51;4.20;29.80
37678;DHT22;23517;50.390;8.616;2023-02-28T08:45:18;6.10;25.40
37678;DHT22;23517;50.390;8.616;2023-02-28T08:47:44;7.60;21.10
37678;DHT22;23517;50.390;8.616;2023-02-28T08:50:11;9.00;18.30
37678;DHT22;23517;50.390;8.616;2023-02-28T08:52:44;10.40;15.60
37678;DHT22;23517;50.390;8.616;2023-02-28T08:55:10;10.30;15.30
37678;DHT22;23517;50.390;8.616;2023-02-28T08:57:37;11.60;13.60
37678;DHT22;23517;50.390;8.616;2023-02-28T09:00:04;11.20;13.20
37678;DHT22;23517;50.390;8.616;2023-02-28T09:02:31;11.50;13.00
37678;DHT22;23517;50.390;8.616;2023-02-28T09:04:58;10.90;12.80
37678;DHT22;23517;50.390;8.616;2023-02-28T09:07:25;12.00;12.70
37678;DHT22;23517;50.390;8.616;2023-02-28T09:09:52;12.40;11.90
37678;DHT22;23517;50.390;8.616;2023-02-28T09:12:23;12.10;11.40
37678;DHT22;23517;50.390;8.616;2023-02-28T09:15:00;12.10;11.20
37678;DHT22;23517;50.390;8.616;2023-02-28T09:17:27;11.40;11.60
37678;DHT22;23517;50.390;8.616;2023-02-28T09:19:56;9.90;13.20
37678;DHT22;23517;50.390;8.616;2023-02-28T09:22:23;8.40;15.00
37678;DHT22;23517;50.390;8.616;2023-02-28T09:24:50;6.30;17.30
37678;DHT22;23517;50.390;8.616;2023-02-28T09:27:17;5.50;19.80
37678;DHT22;23517;50.390;8.616;2023-02-28T09:29:45;4.90;20.40
37678;DHT22;23517;50.390;8.616;2023-02-28T09:32:11;4.10;21.60
37678;DHT22;23517;50.390;8.616;2023-02-28T09:34:38;3.90;22.60
37678;DHT22;23517;50.390;8.616;2023-02-28T09:37:05;3.60;23.10
37678;DHT22;23517;50.390;8.616;2023-02-28T09:39:34;3.50;22.60
37678;DHT22;23517;50.390;8.616;2023-02-28T09:42:02;3.50;23.50
37678;DHT22;23517;50.390;8.616;2023-02-28T09:44:36;3.50;23.70
37678;DHT22;23517;50.390;8.616;2023-02-28T09:47:12;3.50;23.80
37678;DHT22;23517;50.390;8.616;2023-02-28T09:50:12;3.60;23.70
37678;DHT22;23517;50.390;8.616;2023-02-28T09:52:57;3.70;22.80
37678;DHT22;23517;50.390;8.616;2023-02-28T09:55:36;3.70;21.50
37678;DHT22;23517;50.390;8.616;2023-02-28T09:58:26;3.60;22.30
37678;DHT22;23517;50.390;8.616;2023-02-28T10:01:06;3.50;22.60
37678;DHT22;23517;50.390;8.616;2023-02-28T10:03:42;3.30;21.60
37678;DHT22;23517;50.390;8.616;2023-02-28T10:06:41;3.30;22.40
37678;DHT22;23517;50.390;8.616;2023-02-28T10:09:17;3.30;22.50
37678;DHT22;23517;50.390;8.616;2023-02-28T10:11:48;3.30;22.50
37678;DHT22;23517;50.390;8.616;2023-02-28T10:14:17;3.40;22.50
37678;DHT22;23517;50.390;8.616;2023-02-28T10:16:56;3.50;21.70
37678;DHT22;23517;50.390;8.616;2023-02-28T10:19:40;3.50;22.50
37678;DHT22;23517;50.390;8.616;2023-02-28T10:22:23;3.40;21.20
37678;DHT22;23517;50.390;8.616;2023-02-28T10:25:00;3.60;22.30
37678;DHT22;23517;50.390;8.616;2023-02-28T10:27:32;3.50;21.20
37678;DHT22;23517;50.390;8.616;2023-02-28T10:30:01;3.60;21.50
37678;DHT22;23517;50.390;8.616;2023-02-28T10:32:35;3.50;21.70
37678;DHT22;23517;50.390;8.616;2023-02-28T10:37:39;3.30;21.10
37678;DHT22;23517;50.390;8.616;2023-02-28T10:45:33;3.30;21.40
37678;DHT22;23517;50.390;8.616;2023-02-28T11:01:38;3.50;20.50
37678;DHT22;23517;50.390;8.616;2023-02-28T11:04:23;3.50;21.80
37678;DHT22;23517;50.390;8.616;2023-02-28T11:07:04;3.60;20.80
37678;DHT22;23517;50.390;8.616;2023-02-28T11:09:39;3.50;20.70
37678;DHT22;23517;50.390;8.616;2023-02-28T11:12:18;3.60;20.80
37678;DHT22;23517;50.390;8.616;2023-02-28T11:15:00;3.80;21.70
37678;DHT22;23517;50.390;8.616;2023-02-28T11:17:31;3.80;21.70
37678;DHT22;23517;50.390;8.616;2023-02-28T11:20:02;3.70;21.00
37678;DHT22;23517;50.390;8.616;2023-02-28T11:22:34;3.70;20.90
37678;DHT22;23517;50.390;8.616;2023-02-28T11:25:12;3.60;20.60
37678;DHT22;23517;50.390;8.616;2023-02-28T11:27:53;3.60;20.90
37678;DHT22;23517;50.390;8.616;2023-02-28T11:30:28;3.60;19.90
37678;DHT22;23517;50.390;8.616;2023-02-28T11:33:14;3.60;20.00
37678;DHT22;23517;50.390;8.616;2023-02-28T11:36:00;3.50;19.70
37678;DHT22;23517;50.390;8.616;2023-02-28T11:38:32;3.60;20.50
37678;DHT22;23517;50.390;8.616;2023-02-28T11:41:19;3.80;20.80
37678;DHT22;23517;50.390;8.616;2023-02-28T11:44:23;4.00;20.40
37678;DHT22;23517;50.390;8.616;2023-02-28T11:47:11;4.20;20.00
37678;DHT22;23517;50.390;8.616;2023-02-28T11:53:10;4.40;20.40
37678;DHT22;23517;50.390;8.616;2023-02-28T11:55:42;4.40;19.70
37678;DHT22;23517;50.390;8.616;2023-02-28T12:01:38;4.20;20.00
37678;DHT22;23517;50.390;8.616;2023-02-28T12:08:01;3.80;21.50
37678;DHT22;23517;50.390;8.616;2023-02-28T12:10:42;3.70;21.20
37678;DHT22;23517;50.390;8.616;2023-02-28T12:19:38;3.50;22.20
37678;DHT22;23517;50.390;8.616;2023-02-28T12:22:31;3.50;22.60
37678;DHT22;23517;50.390;8.616;2023-02-28T12:28:13;3.70;22.40
37678;DHT22;23517;50.390;8.616;2023-02-28T12:30:50;4.00;23.70
37678;DHT22;23517;50.390;8.616;2023-02-28T12:33:22;4.10;21.70
37678;DHT22;23517;50.390;8.616;2023-02-28T12:35:56;4.20;21.60
37678;DHT22;23517;50.390;8.616;2023-02-28T12:38:31;4.40;21.70
37678;DHT22;23517;50.390;8.616;2023-02-28T12:41:04;4.50;21.30
37678;DHT22;23517;50.390;8.616;2023-02-28T12:43:44;4.40;21.30
37678;DHT22;23517;50.390;8.616;2023-02-28T12:46:23;4.40;21.40
37678;DHT22;23517;50.390;8.616;2023-02-28T12:48:55;4.20;22.30
37678;DHT22;23517;50.390;8.616;2023-02-28T12:51:25;4.20;22.60
37678;DHT22;23517;50.390;8.616;2023-02-28T12:56:43;4.30;23.80
37678;DHT22;23517;50.390;8.616;2023-02-28T12:59:19;4.50;23.30
37678;DHT22;23517;50.390;8.616;2023-02-28T13:14:36;4.30;22.60
37678;DHT22;23517;50.390;8.616;2023-02-28T13:19:35;4.20;22.40
37678;DHT22;23517;50.390;8.616;2023-02-28T13:22:04;4.30;23.20
37678;DHT22;23517;50.390;8.616;2023-02-28T13:29:43;4.50;21.40
37678;DHT22;23517;50.390;8.616;2023-02-28T13:34:40;4.20;22.80
37678;DHT22;23517;50.390;8.616;2023-02-28T13:39:53;4.00;23.30
37678;DHT22;23517;50.390;8.616;2023-02-28T13:47:42;4.20;23.50
37678;DHT22;23517;50.390;8.616;2023-02-28T13:59:15;4.40;22.90
37678;DHT22;23517;50.390;8.616;2023-02-28T14:05:21;4.40;22.90
37678;DHT22;23517;50.390;8.616;2023-02-28T14:07:57;4.30;23.30
37678;DHT22;23517;50.390;8.616;2023-02-28T14:10:39;4.40;22.80
37678;DHT22;23517;50.390;8.616;2023-02-28T14:16:00;4.30;22.40
37678;DHT22;23517;50.390;8.616;2023-02-28T14:18:36;4.30;23.00
37678;DHT22;23517;50.390;8.616;2023-02-28T14:21:34;4.40;22.90
37678;DHT22;23517;50.390;8.616;2023-02-28T14:24:19;4.50;22.20
37678;DHT22;23517;50.390;8.616;2023-02-28T14:35:47;4.30;22.80
37678;DHT22;23517;50.390;8.616;2023-02-28T14:38:28;4.30;23.00
37678;DHT22;23517;50.390;8.616;2023-02-28T14:41:06;4.30;23.00
37678;DHT22;23517;50.390;8.616;2023-02-28T14:43:49;4.50;22.90
37678;DHT22;23517;50.390;8.616;2023-02-28T14:46:22;4.50;22.80
37678;DHT22;23517;50.390;8.616;2023-02-28T14:48:50;4.60;22.40
37678;DHT22;23517;50.390;8.616;2023-02-28T14:51:22;4.70;22.00
37678;DHT22;23517;50.390;8.616;2023-02-28T14:53:56;4.70;21.50
37678;DHT22;23517;50.390;8.616;2023-02-28T14:56:32;4.90;22.20
37678;DHT22;23517;50.390;8.616;2023-02-28T14:59:02;4.90;21.20
37678;DHT22;23517;50.390;8.616;2023-02-28T15:01:30;4.80;21.20
37678;DHT22;23517;50.390;8.616;2023-02-28T15:04:05;4.90;21.80
37678;DHT22;23517;50.390;8.616;2023-02-28T15:06:33;4.70;22.30
37678;DHT22;23517;50.390;8.616;2023-02-28T15:09:18;4.70;21.60
37678;DHT22;23517;50.390;8.616;2023-02-28T15:11:47;4.60;21.60
37678;DHT22;23517;50.390;8.616;2023-02-28T15:14:20;4.60;22.10
37678;DHT22;23517;50.390;8.616;2023-02-28T15:16:53;4.60;23.30
37678;DHT22;23517;50.390;8.616;2023-02-28T15:19:27;4.60;22.60
37678;DHT22;23517;50.390;8.616;2023-02-28T15:22:12;4.50;22.70
37678;DHT22;23517;50.390;8.616;2023-02-28T15:24:49;4.40;23.60
37678;DHT22;23517;50.390;8.616;2023-02-28T15:27:26;4.50;24.40
37678;DHT22;23517;50.390;8.616;2023-02-28T15:29:57;4.40;22.90
37678;DHT22;23517;50.390;8.616;2023-02-28T15:32:27;4.40;23.30
37678;DHT22;23517;50.390;8.616;2023-02-28T15:34:56;4.40;23.40
37678;DHT22;23517;50.390;8.616;2023-02-28T15:40:43;4.30;24.20
37678;DHT22;23517;50.390;8.616;2023-02-28T15:43:18;4.30;24.40
37678;DHT22;23517;50.390;8.616;2023-02-28T15:46:10;4.30;23.70
37678;DHT22;23517;50.390;8.616;2023-02-28T15:48:52;4.20;23.00
37678;DHT22;23517;50.390;8.616;2023-02-28T15:51:29;4.10;23.60
37678;DHT22;23517;50.390;8.616;2023-02-28T15:54:14;4.10;23.90
37678;DHT22;23517;50.390;8.616;2023-02-28T15:56:46;4.10;23.90
37678;DHT22;23517;50.390;8.616;2023-02-28T15:59:17;4.10;23.40
37678;DHT22;23517;50.390;8.616;2023-02-28T16:01:45;4.00;23.80
37678;DHT22;23517;50.390;8.616;2023-02-28T16:04:15;4.00;24.30
37678;DHT22;23517;50.390;8.616;2023-02-28T16:06:46;3.90;24.10
37678;DHT22;23517;50.390;8.616;2023-02-28T16:09:27;3.90;24.30
37678;DHT22;23517;50.390;8.616;2023-02-28T16:12:00;3.80;24.30
37678;DHT22;23517;50.390;8.616;2023-02-28T16:14:29;3.80;24.10
37678;DHT22;23517;50.390;8.616;2023-02-28T16:17:03;3.70;25.20
37678;DHT22;23517;50.390;8.616;2023-02-28T16:19:35;3.60;25.80
37678;DHT22;23517;50.390;8.616;2023-02-28T16:22:01;3.60;25.90
37678;DHT22;23517;50.390;8.616;2023-02-28T16:24:28;3.40;25.90
37678;DHT22;23517;50.390;8.616;2023-02-28T16:26:55;3.30;26.40
37678;DHT22;23517;50.390;8.616;2023-02-28T16:29:29;3.30;26.90
37678;DHT22;23517;50.390;8.616;2023-02-28T16:31:58;3.20;26.70
37678;DHT22;23517;50.390;8.616;2023-02-28T16:34:25;3.20;26.80
37678;DHT22;23517;50.390;8.616;2023-02-28T16:36:52;3.10;26.90
37678;DHT22;23517;50.390;8.616;2023-02-28T16:39:19;3.10;26.50
37678;DHT22;23517;50.390;8.616;2023-02-28T16:41:50;3.00;26.40
37678;DHT22;23517;50.390;8.616;2023-02-28T16:44:31;2.90;27.10
37678;DHT22;23517;50.390;8.616;2023-02-28T16:47:00;2.80;27.30
37678;DHT22;23517;50.390;8.616;2023-02-28T16:49:28;2.80;27.50
37678;DHT22;23517;50.390;8.616;2023-02-28T16:51:54;2.70;28.10
37678;DHT22;23517;50.390;8.616;2023-02-28T16:54:21;2.60;28.80
37678;DHT22;23517;50.390;8.616;2023-02-28T16:56:49;2.50;29.70
37678;DHT22;23517;50.390;8.616;2023-02-28T16:59:19;2.50;30.50
37678;DHT22;23517;50.390;8.616;2023-02-28T17:01:48;2.30;31.20
37678;DHT22;23517;50.390;8.616;2023-02-28T17:04:16;2.20;31.80
37678;DHT22;23517;50.390;8.616;2023-02-28T17:06:43;2.10;32.30
37678;DHT22;23517;50.390;8.616;2023-02-28T17:09:22;2.00;33.00
37678;DHT22;23517;50.390;8.616;2023-02-28T17:12:05;1.90;33.10
37678;DHT22;23517;50.390;8.616;2023-02-28T17:14:45;1.90;32.80
37678;DHT22;23517;50.390;8.616;2023-02-28T17:17:18;1.80;33.50
37678;DHT22;23517;50.390;8.616;2023-02-28T17:19:47;1.70;33.90
37678;DHT22;23517;50.390;8.616;2023-02-28T17:22:14;1.70;34.40
37678;DHT22;23517;50.390;8.616;2023-02-28T17:24:40;1.60;34.60
37678;DHT22;23517;50.390;8.616;2023-02-28T17:27:11;1.50;35.10
37678;DHT22;23517;50.390;8.616;2023-02-28T17:29:38;1.40;35.40
37678;DHT22;23517;50.390;8.616;2023-02-28T17:32:05;1.30;35.40
37678;DHT22;23517;50.390;8.616;2023-02-28T17:34:43;1.30;35.50
37678;DHT22;23517;50.390;8.616;2023-02-28T17:37:12;1.30;35.70
37678;DHT22;23517;50.390;8.616;2023-02-28T17:39:38;1.30;35.50
37678;DHT22;23517;50.390;8.616;2023-02-28T17:42:05;1.20;35.60
37678;DHT22;23517;50.390;8.616;2023-02-28T17:44:31;1.20;35.40
37678;DHT22;23517;50.390;8.616;2023-02-28T17:46:59;1.20;35.60
37678;DHT22;23517;50.390;8.616;2023-02-28T17:49:26;1.20;35.50
37678;DHT22;23517;50.390;8.616;2023-02-28T17:51:53;1.20;36.00
37678;DHT22;23517;50.390;8.616;2023-02-28T17:54:20;1.20;35.60
37678;DHT22;23517;50.390;8.616;2023-02-28T17:56:46;1.20;36.10
37678;DHT22;23517;50.390;8.616;2023-02-28T17:59:13;1.10;35.90
37678;DHT22;23517;50.390;8.616;2023-02-28T18:01:48;1.10;36.00
37678;DHT22;23517;50.390;8.616;2023-02-28T18:04:14;1.10;35.50
37678;DHT22;23517;50.390;8.616;2023-02-28T18:06:43;1.10;35.20
37678;DHT22;23517;50.390;8.616;2023-02-28T18:09:19;1.20;35.00
37678;DHT22;23517;50.390;8.616;2023-02-28T18:11:51;1.20;34.40
37678;DHT22;23517;50.390;8.616;2023-02-28T18:14:20;1.20;34.10
37678;DHT22;23517;50.390;8.616;2023-02-28T18:16:50;1.20;34.60
37678;DHT22;23517;50.390;8.616;2023-02-28T18:19:18;1.20;34.80
37678;DHT22;23517;50.390;8.616;2023-02-28T18:21:51;1.20;34.90
37678;DHT22;23517;50.390;8.616;2023-02-28T18:24:20;1.10;35.30
37678;DHT22;23517;50.390;8.616;2023-02-28T18:26:48;1.20;34.80
37678;DHT22;23517;50.390;8.616;2023-02-28T18:29:18;1.20;34.80
37678;DHT22;23517;50.390;8.616;2023-02-28T18:31:47;1.20;34.60
37678;DHT22;23517;50.390;8.616;2023-02-28T18:34:14;1.20;34.70
37678;DHT22;23517;50.390;8.616;2023-02-28T18:36:44;1.20;35.20
37678;DHT22;23517;50.390;8.616;2023-02-28T18:39:14;1.20;35.40